sensor_id;sensor_type;location;lat;lon;timestamp;pressure;altitude;pressure_sealevel;temperature;humidity
53390;BME280;39288;42.970;1.524;2024-01-11T00:00:02;95878.09;;;0.37;82.15
53390;BME280;39288;42.970;1.524;2024-01-11T00:01:03;95885.28;;;0.30;82.08
53390;BME280;39288;42.970;1.524;2024-01-11T00:02:03;95889.38;;;0.26;82.11
53390;BME280;39288;42.970;1.524;2024-01-11T00:03:04;95879.25;;;0.18;82.87
53390;BME280;39288;42.970;1.524;2024-01-11T00:04:04;95885.50;;;0.17;83.15
53390;BME280;39288;42.970;1.524;2024-01-11T00:05:05;95881.97;;;0.23;82.21
53390;BME280;39288;42.970;1.524;2024-01-11T00:06:06;95876.94;;;0.21;81.87
53390;BME280;39288;42.970;1.524;2024-01-11T00:07:08;95880.28;;;0.28;82.06
53390;BME280;39288;42.970;1.524;2024-01-11T00:08:08;95882.88;;;0.28;82.55
53390;BME280;39288;42.970;1.524;2024-01-11T00:09:11;95886.41;;;0.34;81.74
53390;BME280;39288;42.970;1.524;2024-01-11T00:10:11;95890.03;;;0.33;82.20
53390;BME280;39288;42.970;1.524;2024-01-11T00:11:12;95876.16;;;0.21;82.53
53390;BME280;39288;42.970;1.524;2024-01-11T00:12:12;95898.25;;;0.25;83.22
53390;BME280;39288;42.970;1.524;2024-01-11T00:13:12;95885.81;;;0.20;82.46
53390;BME280;39288;42.970;1.524;2024-01-11T00:14:13;95889.94;;;0.28;82.50
53390;BME280;39288;42.970;1.524;2024-01-11T00:15:13;95884.13;;;0.26;82.25
53390;BME280;39288;42.970;1.524;2024-01-11T00:16:14;95884.59;;;0.23;82.60
53390;BME280;39288;42.970;1.524;2024-01-11T00:17:14;95891.31;;;0.19;82.98
53390;BME280;39288;42.970;1.524;2024-01-11T00:18:15;95891.88;;;0.21;83.20
53390;BME280;39288;42.970;1.524;2024-01-11T00:19:17;95893.38;;;0.28;82.39
53390;BME280;39288;42.970;1.524;2024-01-11T00:20:18;95878.53;;;0.22;83.04
53390;BME280;39288;42.970;1.524;2024-01-11T00:21:18;95882.97;;;0.22;82.60
53390;BME280;39288;42.970;1.524;2024-01-11T00:22:18;95895.63;;;0.13;83.53
53390;BME280;39288;42.970;1.524;2024-01-11T00:23:19;95890.38;;;0.02;83.86
53390;BME280;39288;42.970;1.524;2024-01-11T00:24:19;95892.00;;;0.14;84.02
53390;BME280;39288;42.970;1.524;2024-01-11T00:25:20;95887.09;;;0.18;83.26
53390;BME280;39288;42.970;1.524;2024-01-11T00:26:20;95891.63;;;0.22;83.32
53390;BME280;39288;42.970;1.524;2024-01-11T00:27:20;95892.09;;;0.31;82.07
53390;BME280;39288;42.970;1.524;2024-01-11T00:28:21;95885.72;;;0.27;82.17
53390;BME280;39288;42.970;1.524;2024-01-11T00:29:21;95891.41;;;0.24;83.37
53390;BME280;39288;42.970;1.524;2024-01-11T00:30:21;95889.16;;;0.16;83.94
53390;BME280;39288;42.970;1.524;2024-01-11T00:31:23;95886.97;;;0.13;83.90
53390;BME280;39288;42.970;1.524;2024-01-11T00:32:23;95886.63;;;0.21;82.91
53390;BME280;39288;42.970;1.524;2024-01-11T00:33:24;95891.41;;;0.24;83.95
53390;BME280;39288;42.970;1.524;2024-01-11T00:34:24;95881.88;;;0.18;84.06
53390;BME280;39288;42.970;1.524;2024-01-11T00:35:25;95886.06;;;0.19;84.01
53390;BME280;39288;42.970;1.524;2024-01-11T00:36:25;95878.66;;;0.16;82.82
53390;BME280;39288;42.970;1.524;2024-01-11T00:37:25;95884.47;;;0.18;83.10
53390;BME280;39288;42.970;1.524;2024-01-11T00:38:26;95883.47;;;0.19;82.62
53390;BME280;39288;42.970;1.524;2024-01-11T00:39:26;95882.75;;;0.12;83.57
53390;BME280;39288;42.970;1.524;2024-01-11T00:40:26;95881.63;;;0.08;83.72
53390;BME280;39288;42.970;1.524;2024-01-11T00:41:27;95885.59;;;0.10;83.47
53390;BME280;39288;42.970;1.524;2024-01-11T00:42:27;95900.06;;;0.13;83.61
53390;BME280;39288;42.970;1.524;2024-01-11T00:43:28;95887.53;;;0.03;84.05
53390;BME280;39288;42.970;1.524;2024-01-11T00:44:29;95897.78;;;0.05;84.14
53390;BME280;39288;42.970;1.524;2024-01-11T00:45:29;95886.53;;;0.04;83.81
53390;BME280;39288;42.970;1.524;2024-01-11T00:46:29;95886.16;;;0.00;84.51
53390;BME280;39288;42.970;1.524;2024-01-11T00:47:30;95900.41;;;0.05;83.92
53390;BME280;39288;42.970;1.524;2024-01-11T00:48:30;95893.34;;;0.05;84.55
53390;BME280;39288;42.970;1.524;2024-01-11T00:49:31;95886.28;;;0.06;83.90
53390;BME280;39288;42.970;1.524;2024-01-11T00:50:32;95895.75;;;0.07;83.85
53390;BME280;39288;42.970;1.524;2024-01-11T00:51:32;95893.94;;;0.07;84.23
53390;BME280;39288;42.970;1.524;2024-01-11T00:52:33;95891.97;;;0.03;84.04
53390;BME280;39288;42.970;1.524;2024-01-11T00:53:33;95897.44;;;0.01;84.48
53390;BME280;39288;42.970;1.524;2024-01-11T00:54:34;95894.59;;;0.03;84.00
53390;BME280;39288;42.970;1.524;2024-01-11T00:55:34;95897.78;;;0.05;83.72
53390;BME280;39288;42.970;1.524;2024-01-11T00:56:34;95900.06;;;0.01;84.18
53390;BME280;39288;42.970;1.524;2024-01-11T00:57:35;95885.84;;;-0.03;84.46
53390;BME280;39288;42.970;1.524;2024-01-11T00:58:35;95901.78;;;-0.05;84.94
53390;BME280;39288;42.970;1.524;2024-01-11T00:59:35;95903.16;;;0.10;83.99
53390;BME280;39288;42.970;1.524;2024-01-11T01:00:36;95895.75;;;0.07;84.11
53390;BME280;39288;42.970;1.524;2024-01-11T01:01:36;95902.69;;;0.13;83.96
53390;BME280;39288;42.970;1.524;2024-01-11T01:02:37;95905.31;;;0.13;83.61
53390;BME280;39288;42.970;1.524;2024-01-11T01:03:37;95905.44;;;0.18;83.75
53390;BME280;39288;42.970;1.524;2024-01-11T01:04:38;95899.03;;;0.14;83.49
53390;BME280;39288;42.970;1.524;2024-01-11T01:05:39;95908.25;;;0.05;84.12
53390;BME280;39288;42.970;1.524;2024-01-11T01:06:40;95897.19;;;-0.09;84.91
53390;BME280;39288;42.970;1.524;2024-01-11T01:07:41;95908.03;;;-0.06;84.88
53390;BME280;39288;42.970;1.524;2024-01-11T01:08:41;95913.63;;;-0.02;84.95
53390;BME280;39288;42.970;1.524;2024-01-11T01:09:42;95907.13;;;0.00;83.91
53390;BME280;39288;42.970;1.524;2024-01-11T01:10:42;95916.69;;;0.07;84.35
53390;BME280;39288;42.970;1.524;2024-01-11T01:11:43;95914.31;;;0.05;84.30
53390;BME280;39288;42.970;1.524;2024-01-11T01:12:43;95915.66;;;-0.04;84.31
53390;BME280;39288;42.970;1.524;2024-01-11T01:13:44;95920.44;;;-0.01;84.65
53390;BME280;39288;42.970;1.524;2024-01-11T01:14:44;95910.88;;;-0.07;84.83
53390;BME280;39288;42.970;1.524;2024-01-11T01:15:44;95917.69;;;-0.06;85.09
53390;BME280;39288;42.970;1.524;2024-01-11T01:16:45;95916.31;;;-0.09;85.66
53390;BME280;39288;42.970;1.524;2024-01-11T01:17:45;95909.97;;;-0.01;85.20
53390;BME280;39288;42.970;1.524;2024-01-11T01:18:45;95919.75;;;0.04;84.57
53390;BME280;39288;42.970;1.524;2024-01-11T01:19:46;95918.38;;;0.01;84.81
53390;BME280;39288;42.970;1.524;2024-01-11T01:20:46;95916.47;;;-0.04;85.42
53390;BME280;39288;42.970;1.524;2024-01-11T01:21:47;95917.25;;;-0.03;84.69
53390;BME280;39288;42.970;1.524;2024-01-11T01:22:47;95922.38;;;0.04;84.69
53390;BME280;39288;42.970;1.524;2024-01-11T01:23:47;95921.25;;;-0.01;84.66
53390;BME280;39288;42.970;1.524;2024-01-11T01:24:48;95919.28;;;-0.05;84.95
53390;BME280;39288;42.970;1.524;2024-01-11T01:25:48;95922.50;;;-0.03;84.92
53390;BME280;39288;42.970;1.524;2024-01-11T01:26:49;95928.97;;;-0.06;85.08
53390;BME280;39288;42.970;1.524;2024-01-11T01:27:49;95930.44;;;-0.10;85.61
53390;BME280;39288;42.970;1.524;2024-01-11T01:28:49;95910.19;;;-0.14;85.94
53390;BME280;39288;42.970;1.524;2024-01-11T01:29:50;95921.81;;;-0.10;85.50
53390;BME280;39288;42.970;1.524;2024-01-11T01:30:51;95923.06;;;-0.13;85.70
53390;BME280;39288;42.970;1.524;2024-01-11T01:31:52;95933.63;;;-0.08;85.84
53390;BME280;39288;42.970;1.524;2024-01-11T01:32:53;95931.59;;;-0.06;86.05
53390;BME280;39288;42.970;1.524;2024-01-11T01:33:53;95924.97;;;-0.08;85.30
53390;BME280;39288;42.970;1.524;2024-01-11T01:34:54;95927.72;;;-0.15;85.43
53390;BME280;39288;42.970;1.524;2024-01-11T01:35:54;95934.75;;;-0.15;86.54
53390;BME280;39288;42.970;1.524;2024-01-11T01:36:55;95932.81;;;-0.20;86.53
53390;BME280;39288;42.970;1.524;2024-01-11T01:37:55;95937.03;;;-0.19;86.28
53390;BME280;39288;42.970;1.524;2024-01-11T01:38:55;95932.94;;;-0.15;86.73
53390;BME280;39288;42.970;1.524;2024-01-11T01:39:56;95931.78;;;-0.19;86.07
53390;BME280;39288;42.970;1.524;2024-01-11T01:40:56;95927.81;;;-0.21;86.20
53390;BME280;39288;42.970;1.524;2024-01-11T01:41:56;95924.94;;;-0.20;86.69
53390;BME280;39288;42.970;1.524;2024-01-11T01:43:00;95936.34;;;-0.14;86.29
53390;BME280;39288;42.970;1.524;2024-01-11T01:44:00;95930.19;;;-0.20;86.58
53390;BME280;39288;42.970;1.524;2024-01-11T01:45:00;95936.00;;;-0.18;86.48
53390;BME280;39288;42.970;1.524;2024-01-11T01:46:02;95931.91;;;-0.14;86.41
53390;BME280;39288;42.970;1.524;2024-01-11T01:47:04;95929.41;;;-0.09;86.14
53390;BME280;39288;42.970;1.524;2024-01-11T01:48:05;95943.66;;;-0.05;85.78
53390;BME280;39288;42.970;1.524;2024-01-11T01:49:05;95932.13;;;-0.15;86.05
53390;BME280;39288;42.970;1.524;2024-01-11T01:50:07;95942.03;;;-0.17;86.68
53390;BME280;39288;42.970;1.524;2024-01-11T01:51:07;95943.38;;;-0.26;87.25
53390;BME280;39288;42.970;1.524;2024-01-11T01:52:08;95947.97;;;-0.22;87.08
53390;BME280;39288;42.970;1.524;2024-01-11T01:53:09;95945.22;;;-0.15;87.11
53390;BME280;39288;42.970;1.524;2024-01-11T01:54:10;95948.75;;;-0.10;86.43
53390;BME280;39288;42.970;1.524;2024-01-11T01:55:12;95948.09;;;-0.05;86.64
53390;BME280;39288;42.970;1.524;2024-01-11T01:56:13;95943.19;;;-0.13;86.10
53390;BME280;39288;42.970;1.524;2024-01-11T01:57:13;95950.47;;;-0.15;86.80
53390;BME280;39288;42.970;1.524;2024-01-11T01:58:15;95951.94;;;-0.08;86.43
53390;BME280;39288;42.970;1.524;2024-01-11T01:59:18;95948.31;;;-0.07;86.28
53390;BME280;39288;42.970;1.524;2024-01-11T02:00:19;95951.88;;;-0.01;85.97
53390;BME280;39288;42.970;1.524;2024-01-11T02:01:20;95942.75;;;0.02;85.36
53390;BME280;39288;42.970;1.524;2024-01-11T02:02:22;95951.94;;;-0.08;85.69
53390;BME280;39288;42.970;1.524;2024-01-11T02:03:24;95956.16;;;-0.07;86.29
53390;BME280;39288;42.970;1.524;2024-01-11T02:04:27;95947.53;;;-0.07;85.15
53390;BME280;39288;42.970;1.524;2024-01-11T02:05:28;95949.91;;;-0.06;86.15
53390;BME280;39288;42.970;1.524;2024-01-11T02:06:29;95951.94;;;-0.08;86.38
53390;BME280;39288;42.970;1.524;2024-01-11T02:07:33;95960.97;;;-0.04;86.46
53390;BME280;39288;42.970;1.524;2024-01-11T02:08:34;95963.59;;;-0.04;86.02
53390;BME280;39288;42.970;1.524;2024-01-11T02:09:36;95962.78;;;-0.04;86.34
53390;BME280;39288;42.970;1.524;2024-01-11T02:10:37;95965.63;;;-0.06;86.36
53390;BME280;39288;42.970;1.524;2024-01-11T02:11:38;95968.13;;;-0.11;86.69
53390;BME280;39288;42.970;1.524;2024-01-11T02:12:39;95958.09;;;-0.14;86.97
53390;BME280;39288;42.970;1.524;2024-01-11T02:13:40;95969.25;;;-0.07;86.97
53390;BME280;39288;42.970;1.524;2024-01-11T02:14:41;95968.25;;;-0.06;86.69
53390;BME280;39288;42.970;1.524;2024-01-11T02:15:42;95955.38;;;-0.07;86.33
53390;BME280;39288;42.970;1.524;2024-01-11T02:16:42;95967.66;;;-0.08;86.71
53390;BME280;39288;42.970;1.524;2024-01-11T02:17:43;95972.31;;;-0.10;86.70
53390;BME280;39288;42.970;1.524;2024-01-11T02:18:43;95969.69;;;-0.10;86.72
53390;BME280;39288;42.970;1.524;2024-01-11T02:19:43;95953.31;;;-0.17;86.86
53390;BME280;39288;42.970;1.524;2024-01-11T02:20:44;95960.56;;;-0.19;86.38
53390;BME280;39288;42.970;1.524;2024-01-11T02:21:46;95954.31;;;-0.18;86.29
53390;BME280;39288;42.970;1.524;2024-01-11T02:22:51;95963.69;;;-0.10;86.22
53390;BME280;39288;42.970;1.524;2024-01-11T02:24:06;95966.28;;;-0.22;86.93
53390;BME280;39288;42.970;1.524;2024-01-11T02:25:07;95963.50;;;-0.27;87.22
53390;BME280;39288;42.970;1.524;2024-01-11T02:26:07;95963.09;;;-0.24;87.45
53390;BME280;39288;42.970;1.524;2024-01-11T02:27:08;95967.88;;;-0.21;87.26
53390;BME280;39288;42.970;1.524;2024-01-11T02:28:10;95961.59;;;-0.20;87.56
53390;BME280;39288;42.970;1.524;2024-01-11T02:29:11;95964.94;;;-0.13;86.94
53390;BME280;39288;42.970;1.524;2024-01-11T02:30:12;95971.03;;;-0.19;87.04
53390;BME280;39288;42.970;1.524;2024-01-11T02:31:13;95976.84;;;-0.17;87.14
53390;BME280;39288;42.970;1.524;2024-01-11T02:32:14;95969.69;;;-0.10;87.14
53390;BME280;39288;42.970;1.524;2024-01-11T02:33:14;95972.19;;;-0.15;87.44
53390;BME280;39288;42.970;1.524;2024-01-11T02:34:17;95977.00;;;-0.12;86.75
53390;BME280;39288;42.970;1.524;2024-01-11T02:35:18;95973.13;;;-0.09;87.07
53390;BME280;39288;42.970;1.524;2024-01-11T02:36:20;95971.88;;;-0.07;86.87
53390;BME280;39288;42.970;1.524;2024-01-11T02:37:21;95977.69;;;-0.05;86.54
53390;BME280;39288;42.970;1.524;2024-01-11T02:38:21;95972.56;;;-0.11;86.46
53390;BME280;39288;42.970;1.524;2024-01-11T02:39:22;95968.13;;;-0.11;86.99
53390;BME280;39288;42.970;1.524;2024-01-11T02:40:24;95973.47;;;-0.06;87.02
53390;BME280;39288;42.970;1.524;2024-01-11T02:41:26;95966.53;;;-0.12;86.51
53390;BME280;39288;42.970;1.524;2024-01-11T02:42:28;95973.16;;;0.03;86.24
53390;BME280;39288;42.970;1.524;2024-01-11T02:43:28;95963.69;;;0.02;85.87
53390;BME280;39288;42.970;1.524;2024-01-11T02:44:28;95971.53;;;0.02;85.92
53390;BME280;39288;42.970;1.524;2024-01-11T02:45:29;95962.09;;;-0.11;86.39
53390;BME280;39288;42.970;1.524;2024-01-11T02:46:30;95975.41;;;-0.13;87.14
53390;BME280;39288;42.970;1.524;2024-01-11T02:47:31;95973.81;;;-0.14;87.07
53390;BME280;39288;42.970;1.524;2024-01-11T02:48:31;95966.97;;;-0.15;87.58
53390;BME280;39288;42.970;1.524;2024-01-11T02:49:32;95964.94;;;-0.13;87.08
53390;BME280;39288;42.970;1.524;2024-01-11T02:50:32;95967.06;;;-0.10;87.14
53390;BME280;39288;42.970;1.524;2024-01-11T02:51:32;95966.28;;;-0.22;86.98
53390;BME280;39288;42.970;1.524;2024-01-11T02:52:33;95968.69;;;-0.20;87.08
53390;BME280;39288;42.970;1.524;2024-01-11T02:53:34;95963.09;;;-0.24;87.90
53390;BME280;39288;42.970;1.524;2024-01-11T02:54:34;95966.28;;;-0.22;87.94
53390;BME280;39288;42.970;1.524;2024-01-11T02:55:35;95971.03;;;-0.19;87.64
53390;BME280;39288;42.970;1.524;2024-01-11T02:56:35;95968.31;;;-0.24;87.68
53390;BME280;39288;42.970;1.524;2024-01-11T02:57:35;95969.34;;;-0.25;87.98
53390;BME280;39288;42.970;1.524;2024-01-11T02:58:36;95966.34;;;-0.28;87.62
53390;BME280;39288;42.970;1.524;2024-01-11T02:59:36;95974.13;;;-0.22;87.99
53390;BME280;39288;42.970;1.524;2024-01-11T03:00:37;95968.22;;;-0.17;87.84
53390;BME280;39288;42.970;1.524;2024-01-11T03:01:37;95966.16;;;-0.15;87.45
53390;BME280;39288;42.970;1.524;2024-01-11T03:02:38;95955.81;;;-0.22;87.50
53390;BME280;39288;42.970;1.524;2024-01-11T03:03:38;95964.94;;;-0.13;86.91
53390;BME280;39288;42.970;1.524;2024-01-11T03:04:39;95966.53;;;-0.12;86.87
53390;BME280;39288;42.970;1.524;2024-01-11T03:05:39;95969.47;;;-0.08;86.87
53390;BME280;39288;42.970;1.524;2024-01-11T03:06:39;95965.25;;;-0.09;86.91
53390;BME280;39288;42.970;1.524;2024-01-11T03:07:40;95964.47;;;-0.10;86.71
53390;BME280;39288;42.970;1.524;2024-01-11T03:08:41;95967.88;;;-0.09;86.91
53390;BME280;39288;42.970;1.524;2024-01-11T03:09:41;95965.63;;;-0.06;86.62
53390;BME280;39288;42.970;1.524;2024-01-11T03:10:41;95978.06;;;-0.01;86.52
53390;BME280;39288;42.970;1.524;2024-01-11T03:11:42;95961.53;;;-0.02;85.58
53390;BME280;39288;42.970;1.524;2024-01-11T03:12:43;95963.38;;;-0.02;85.71
53390;BME280;39288;42.970;1.524;2024-01-11T03:13:43;95957.78;;;-0.06;86.61
53390;BME280;39288;42.970;1.524;2024-01-11T03:14:43;95967.78;;;-0.14;86.70
53390;BME280;39288;42.970;1.524;2024-01-11T03:15:44;95964.47;;;-0.10;87.09
53390;BME280;39288;42.970;1.524;2024-01-11T03:16:44;95965.25;;;-0.09;86.56
53390;BME280;39288;42.970;1.524;2024-01-11T03:17:45;95958.53;;;-0.17;86.83
53390;BME280;39288;42.970;1.524;2024-01-11T03:18:45;95971.78;;;-0.12;86.44
53390;BME280;39288;42.970;1.524;2024-01-11T03:19:46;95969.91;;;-0.23;87.39
53390;BME280;39288;42.970;1.524;2024-01-11T03:20:46;95962.72;;;-0.27;87.94
53390;BME280;39288;42.970;1.524;2024-01-11T03:21:46;95969.34;;;-0.25;88.01
53390;BME280;39288;42.970;1.524;2024-01-11T03:22:47;95964.22;;;-0.20;87.43
53390;BME280;39288;42.970;1.524;2024-01-11T03:23:48;95962.75;;;-0.16;87.19
53390;BME280;39288;42.970;1.524;2024-01-11T03:24:48;95968.47;;;-0.07;86.76
53390;BME280;39288;42.970;1.524;2024-01-11T03:25:48;95967.66;;;-0.08;86.60
53390;BME280;39288;42.970;1.524;2024-01-11T03:26:49;95958.34;;;-0.04;85.60
53390;BME280;39288;42.970;1.524;2024-01-11T03:27:49;95958.72;;;0.00;85.61
53390;BME280;39288;42.970;1.524;2024-01-11T03:28:49;95955.84;;;0.02;85.24
53390;BME280;39288;42.970;1.524;2024-01-11T03:29:50;95962.22;;;0.06;85.54
53390;BME280;39288;42.970;1.524;2024-01-11T03:30:50;95968.50;;;0.05;85.40
53390;BME280;39288;42.970;1.524;2024-01-11T03:31:51;95963.47;;;0.03;84.56
53390;BME280;39288;42.970;1.524;2024-01-11T03:32:51;95964.28;;;0.04;84.77
53390;BME280;39288;42.970;1.524;2024-01-11T03:33:52;95965.66;;;0.06;85.06
53390;BME280;39288;42.970;1.524;2024-01-11T03:34:52;95968.28;;;0.06;85.20
53390;BME280;39288;42.970;1.524;2024-01-11T03:35:52;95966.88;;;0.04;84.82
53390;BME280;39288;42.970;1.524;2024-01-11T03:36:53;95958.34;;;-0.04;85.13
53390;BME280;39288;42.970;1.524;2024-01-11T03:37:53;95967.00;;;-0.03;84.84
53390;BME280;39288;42.970;1.524;2024-01-11T03:38:54;95957.78;;;-0.06;84.76
53390;BME280;39288;42.970;1.524;2024-01-11T03:39:54;95962.88;;;0.01;84.92
53390;BME280;39288;42.970;1.524;2024-01-11T03:40:54;95959.16;;;-0.03;85.12
53390;BME280;39288;42.970;1.524;2024-01-11T03:41:55;95964.16;;;-0.02;85.56
53390;BME280;39288;42.970;1.524;2024-01-11T03:42:55;95958.94;;;-0.02;84.99
53390;BME280;39288;42.970;1.524;2024-01-11T03:43:55;95960.75;;;-0.02;85.50
53390;BME280;39288;42.970;1.524;2024-01-11T03:44:56;95955.16;;;-0.06;85.36
53390;BME280;39288;42.970;1.524;2024-01-11T03:45:56;95964.72;;;0.00;85.70
53390;BME280;39288;42.970;1.524;2024-01-11T03:46:57;95954.72;;;-0.03;85.26
53390;BME280;39288;42.970;1.524;2024-01-11T03:47:57;95958.09;;;-0.14;85.27
53390;BME280;39288;42.970;1.524;2024-01-11T03:48:57;95963.59;;;-0.04;85.47
53390;BME280;39288;42.970;1.524;2024-01-11T03:49:59;95960.75;;;-0.02;85.71
53390;BME280;39288;42.970;1.524;2024-01-11T03:51:00;95963.94;;;0.00;85.27
53390;BME280;39288;42.970;1.524;2024-01-11T03:52:00;95969.25;;;-0.07;85.90
53390;BME280;39288;42.970;1.524;2024-01-11T03:53:01;95952.06;;;-0.14;86.23
53390;BME280;39288;42.970;1.524;2024-01-11T03:54:01;95964.38;;;-0.03;85.48
53390;BME280;39288;42.970;1.524;2024-01-11T03:55:02;95968.38;;;-0.01;85.72
53390;BME280;39288;42.970;1.524;2024-01-11T03:56:02;95961.06;;;-0.10;85.88
53390;BME280;39288;42.970;1.524;2024-01-11T03:57:03;95957.41;;;-0.21;85.89
53390;BME280;39288;42.970;1.524;2024-01-11T03:58:03;95965.47;;;-0.22;86.95
53390;BME280;39288;42.970;1.524;2024-01-11T03:59:04;95968.31;;;-0.24;86.79
53390;BME280;39288;42.970;1.524;2024-01-11T04:00:05;95971.28;;;-0.20;87.18
53390;BME280;39288;42.970;1.524;2024-01-11T04:01:06;95976.84;;;-0.17;86.72
53390;BME280;39288;42.970;1.524;2024-01-11T04:02:09;95980.63;;;-0.13;86.42
53390;BME280;39288;42.970;1.524;2024-01-11T04:03:09;95964.56;;;-0.16;86.27
53390;BME280;39288;42.970;1.524;2024-01-11T04:04:10;95976.53;;;-0.09;86.56
53390;BME280;39288;42.970;1.524;2024-01-11T04:05:10;95977.88;;;-0.18;86.36
53390;BME280;39288;42.970;1.524;2024-01-11T04:06:19;95964.69;;;-0.23;86.53
53390;BME280;39288;42.970;1.524;2024-01-11T04:07:21;95981.44;;;-0.12;87.11
53390;BME280;39288;42.970;1.524;2024-01-11T04:08:21;95980.63;;;-0.13;86.07
53390;BME280;39288;42.970;1.524;2024-01-11T04:09:22;95978.34;;;-0.09;86.59
53390;BME280;39288;42.970;1.524;2024-01-11T04:10:22;95987.47;;;-0.12;86.24
53390;BME280;39288;42.970;1.524;2024-01-11T04:11:22;95969.91;;;-0.23;86.79
53390;BME280;39288;42.970;1.524;2024-01-11T04:12:23;95972.31;;;-0.21;86.72
53390;BME280;39288;42.970;1.524;2024-01-11T04:13:23;95976.28;;;-0.19;87.07
53390;BME280;39288;42.970;1.524;2024-01-11T04:14:24;95976.28;;;-0.19;86.85
53390;BME280;39288;42.970;1.524;2024-01-11T04:15:25;95976.78;;;-0.10;86.59
53390;BME280;39288;42.970;1.524;2024-01-11T04:16:25;95966.28;;;-0.22;86.59
53390;BME280;39288;42.970;1.524;2024-01-11T04:17:25;95978.69;;;-0.17;86.43
53390;BME280;39288;42.970;1.524;2024-01-11T04:18:26;95983.59;;;-0.21;86.72
53390;BME280;39288;42.970;1.524;2024-01-11T04:19:26;95978.34;;;-0.21;87.05
53390;BME280;39288;42.970;1.524;2024-01-11T04:20:28;95985.94;;;-0.19;87.47
53390;BME280;39288;42.970;1.524;2024-01-11T04:21:28;95975.59;;;-0.26;87.84
53390;BME280;39288;42.970;1.524;2024-01-11T04:22:29;95971.81;;;-0.30;87.96
53390;BME280;39288;42.970;1.524;2024-01-11T04:23:29;95969.06;;;-0.35;88.18
53390;BME280;39288;42.970;1.524;2024-01-11T04:24:30;95987.06;;;-0.27;88.16
53390;BME280;39288;42.970;1.524;2024-01-11T04:25:30;95973.56;;;-0.24;88.41
53390;BME280;39288;42.970;1.524;2024-01-11T04:26:31;95979.91;;;-0.20;87.88
53390;BME280;39288;42.970;1.524;2024-01-11T04:27:31;95974.69;;;-0.20;87.53
53390;BME280;39288;42.970;1.524;2024-01-11T04:28:31;95976.63;;;-0.15;86.86
53390;BME280;39288;42.970;1.524;2024-01-11T04:29:32;95981.88;;;-0.15;87.09
53390;BME280;39288;42.970;1.524;2024-01-11T04:30:32;95979.91;;;-0.20;87.25
53390;BME280;39288;42.970;1.524;2024-01-11T04:31:33;95980.72;;;-0.19;87.06
53390;BME280;39288;42.970;1.524;2024-01-11T04:32:33;95959.63;;;-0.36;87.59
53390;BME280;39288;42.970;1.524;2024-01-11T04:33:34;95975.59;;;-0.26;87.17
53390;BME280;39288;42.970;1.524;2024-01-11T04:34:34;95981.19;;;-0.22;87.48
53390;BME280;39288;42.970;1.524;2024-01-11T04:35:35;95975.91;;;-0.34;87.85
53390;BME280;39288;42.970;1.524;2024-01-11T04:36:37;95981.84;;;-0.27;87.58
53390;BME280;39288;42.970;1.524;2024-01-11T04:37:37;95981.97;;;-0.22;87.97
53390;BME280;39288;42.970;1.524;2024-01-11T04:38:38;95985.63;;;-0.23;87.69
53390;BME280;39288;42.970;1.524;2024-01-11T04:39:39;95985.16;;;-0.20;87.34
53390;BME280;39288;42.970;1.524;2024-01-11T04:40:39;95969.91;;;-0.23;87.38
53390;BME280;39288;42.970;1.524;2024-01-11T04:41:40;95976.28;;;-0.19;87.58
53390;BME280;39288;42.970;1.524;2024-01-11T04:42:41;95980.72;;;-0.19;87.35
53390;BME280;39288;42.970;1.524;2024-01-11T04:43:42;95992.56;;;-0.17;87.72
53390;BME280;39288;42.970;1.524;2024-01-11T04:44:43;95986.75;;;-0.19;86.48
53390;BME280;39288;42.970;1.524;2024-01-11T04:45:43;95985.16;;;-0.20;86.72
53390;BME280;39288;42.970;1.524;2024-01-11T04:46:44;95984.13;;;-0.19;86.97
53390;BME280;39288;42.970;1.524;2024-01-11T04:47:44;95989.25;;;-0.24;87.31
53390;BME280;39288;42.970;1.524;2024-01-11T04:48:46;95990.38;;;-0.20;87.33
53390;BME280;39288;42.970;1.524;2024-01-11T04:49:46;95989.03;;;-0.22;87.45
53390;BME280;39288;42.970;1.524;2024-01-11T04:50:47;95997.69;;;-0.22;87.47
53390;BME280;39288;42.970;1.524;2024-01-11T04:51:47;95990.84;;;-0.23;87.77
53390;BME280;39288;42.970;1.524;2024-01-11T04:52:47;95999.28;;;-0.21;87.39
53390;BME280;39288;42.970;1.524;2024-01-11T04:53:48;95997.69;;;-0.22;87.74
53390;BME280;39288;42.970;1.524;2024-01-11T04:54:48;95988.81;;;-0.21;87.17
53390;BME280;39288;42.970;1.524;2024-01-11T04:55:49;95992.13;;;-0.14;86.97
53390;BME280;39288;42.970;1.524;2024-01-11T04:56:49;96000.56;;;-0.12;86.81
53390;BME280;39288;42.970;1.524;2024-01-11T04:57:50;96002.72;;;-0.09;86.27
53390;BME280;39288;42.970;1.524;2024-01-11T04:58:50;96004.31;;;-0.08;86.30
53390;BME280;39288;42.970;1.524;2024-01-11T04:59:50;95999.53;;;-0.11;86.99
53390;BME280;39288;42.970;1.524;2024-01-11T05:00:51;96002.03;;;-0.16;86.89
53390;BME280;39288;42.970;1.524;2024-01-11T05:01:51;95999.53;;;-0.11;86.78
53390;BME280;39288;42.970;1.524;2024-01-11T05:02:51;95998.28;;;-0.08;86.33
53390;BME280;39288;42.970;1.524;2024-01-11T05:03:52;96000.69;;;-0.07;86.29
53390;BME280;39288;42.970;1.524;2024-01-11T05:04:53;95997.94;;;-0.12;86.23
53390;BME280;39288;42.970;1.524;2024-01-11T05:05:53;96007.94;;;-0.09;86.42
53390;BME280;39288;42.970;1.524;2024-01-11T05:06:54;96004.53;;;-0.09;86.37
53390;BME280;39288;42.970;1.524;2024-01-11T05:07:54;96014.09;;;-0.15;86.50
53390;BME280;39288;42.970;1.524;2024-01-11T05:08:54;96001.22;;;-0.16;86.93
53390;BME280;39288;42.970;1.524;2024-01-11T05:09:55;96007.94;;;-0.20;86.82
53390;BME280;39288;42.970;1.524;2024-01-11T05:10:55;95992.66;;;-0.23;87.20
53390;BME280;39288;42.970;1.524;2024-01-11T05:11:56;95994.59;;;-0.19;86.72
53390;BME280;39288;42.970;1.524;2024-01-11T05:12:56;96002.13;;;-0.22;86.89
53390;BME280;39288;42.970;1.524;2024-01-11T05:13:57;96002.56;;;-0.25;87.22
53390;BME280;39288;42.970;1.524;2024-01-11T05:14:57;95985.00;;;-0.37;87.72
53390;BME280;39288;42.970;1.524;2024-01-11T05:15:57;95994.59;;;-0.30;87.50
53390;BME280;39288;42.970;1.524;2024-01-11T05:16:58;96002.19;;;-0.29;87.39
53390;BME280;39288;42.970;1.524;2024-01-11T05:17:58;96004.16;;;-0.24;86.71
53390;BME280;39288;42.970;1.524;2024-01-11T05:18:59;95997.69;;;-0.22;86.47
53390;BME280;39288;42.970;1.524;2024-01-11T05:19:59;96002.19;;;-0.29;86.96
53390;BME280;39288;42.970;1.524;2024-01-11T05:20:59;96003.34;;;-0.25;87.45
53390;BME280;39288;42.970;1.524;2024-01-11T05:22:00;96008.16;;;-0.22;87.12